Time;durP1;ratioP1;P1;durP2;ratioP2;P2;SDS_P1;SDS_P2;PMS_P1;PMS_P2;Temp;Humidity;BMP_temperature;BMP_pressure;BME280_temperature;BME280_humidity;BME280_pressure;Samples;Min_cycle;Max_cycle;Signal;HPM_P1;HPM_P2
2024/03/26 00:00:25;;;;;;;5.40;3.75;;;;;;;;;;2078771;28;20119;-64
2024/03/26 00:01:44;;;;;;;7.47;3.88;;;;;;;;;;2076800;28;20030;-64
2024/03/26 00:03:02;;;;;;;6.78;3.67;;;;;;;;;;2075207;28;20064;-64
2024/03/26 00:04:21;;;;;;;3.70;3.40;;;;;;;;;;2074302;28;20049;-64
2024/03/26 00:05:41;;;;;;;4.15;3.45;;;;;;;;;;2074413;28;20021;-64
2024/03/26 00:07:00;;;;;;;5.90;3.28;;;;;;;;;;2075669;28;20056;-64
2024/03/26 00:08:19;;;;;;;4.22;3.70;;;;;;;;;;2073865;28;20490;-63
2024/03/26 00:09:38;;;;;;;4.95;3.53;;;;;;;;;;2073847;28;20025;-63
2024/03/26 00:11:00;;;;;;;4.13;3.72;;;;;;;;;;2073332;28;20041;-63
2024/03/26 00:12:19;;;;;;;4.53;4.07;;;;;;;;;;2075168;28;20086;-63
2024/03/26 00:13:38;;;;;;;4.60;3.42;;;;;;;;;;2070377;28;20084;-63
2024/03/26 00:14:57;;;;;;;5.53;3.92;;;;;;;;;;2074017;28;20055;-63
2024/03/26 00:16:16;;;;;;;4.20;3.80;;;;;;;;;;2073368;28;20506;-63
2024/03/26 00:17:35;;;;;;;4.10;3.75;;;;;;;;;;2079762;28;20025;-63
2024/03/26 00:18:54;;;;;;;5.45;4.13;;;;;;;;;;2073669;28;20018;-63
2024/03/26 00:20:13;;;;;;;5.03;3.75;;;;;;;;;;2074182;28;20056;-63
2024/03/26 00:21:32;;;;;;;5.07;4.15;;;;;;;;;;2075789;28;20064;-63
2024/03/26 00:22:51;;;;;;;5.43;3.83;;;;;;;;;;2073547;28;20466;-64
2024/03/26 00:24:10;;;;;;;4.45;4.00;;;;;;;;;;2072285;28;20029;-63
2024/03/26 00:25:29;;;;;;;4.25;3.95;;;;;;;;;;2074166;28;20037;-63
2024/03/26 00:26:48;;;;;;;6.00;3.97;;;;;;;;;;2073566;28;20054;-63
2024/03/26 00:28:07;;;;;;;5.95;4.38;;;;;;;;;;2073780;28;20695;-63
2024/03/26 00:29:26;;;;;;;5.55;4.07;;;;;;;;;;2073522;28;20037;-63
2024/03/26 00:30:45;;;;;;;4.88;3.80;;;;;;;;;;2073067;28;20026;-63
2024/03/26 00:32:04;;;;;;;6.28;4.28;;;;;;;;;;2074500;28;20083;-63
2024/03/26 00:33:23;;;;;;;6.35;3.80;;;;;;;;;;2072959;28;20045;-63
2024/03/26 00:34:41;;;;;;;4.10;3.70;;;;;;;;;;2073795;28;20030;-63
2024/03/26 00:36:01;;;;;;;6.25;4.18;;;;;;;;;;2073748;28;20116;-63
2024/03/26 00:37:20;;;;;;;4.10;3.70;;;;;;;;;;2073171;28;20795;-63
2024/03/26 00:38:38;;;;;;;4.95;3.83;;;;;;;;;;2073426;28;20033;-63
2024/03/26 00:39:57;;;;;;;4.38;3.97;;;;;;;;;;2073061;28;20037;-63
2024/03/26 00:41:16;;;;;;;4.30;3.97;;;;;;;;;;2070624;28;20703;-63
2024/03/26 00:42:36;;;;;;;6.93;3.65;;;;;;;;;;2074579;28;20592;-63
2024/03/26 00:43:54;;;;;;;4.55;3.95;;;;;;;;;;2072838;28;20033;-63
2024/03/26 00:45:13;;;;;;;3.90;3.50;;;;;;;;;;2073148;28;20142;-63
2024/03/26 00:46:32;;;;;;;4.15;3.75;;;;;;;;;;2074070;28;20030;-63
2024/03/26 00:47:51;;;;;;;7.30;4.38;;;;;;;;;;2075878;28;20025;-63
2024/03/26 00:49:10;;;;;;;4.75;4.20;;;;;;;;;;2073082;28;20102;-64
2024/03/26 00:50:29;;;;;;;6.18;4.40;;;;;;;;;;2073670;28;20033;-63
2024/03/26 00:51:48;;;;;;;8.25;4.53;;;;;;;;;;2073564;28;20045;-63
2024/03/26 00:53:08;;;;;;;4.30;3.90;;;;;;;;;;2074675;28;20034;-63
2024/03/26 00:54:27;;;;;;;4.43;3.92;;;;;;;;;;2073647;28;20025;-63
2024/03/26 00:55:45;;;;;;;4.32;3.92;;;;;;;;;;2072869;28;20038;-63
2024/03/26 00:57:05;;;;;;;7.68;4.78;;;;;;;;;;2073761;28;20034;-63
2024/03/26 00:58:24;;;;;;;4.70;4.30;;;;;;;;;;2074562;28;20030;-63
2024/03/26 00:59:42;;;;;;;4.35;3.95;;;;;;;;;;2073835;28;20404;-63
2024/03/26 01:01:11;;;;;;;4.43;4.03;;;;;;;;;;2073450;28;20033;-63
2024/03/26 01:02:31;;;;;;;4.68;4.22;;;;;;;;;;2075217;28;20647;-63
2024/03/26 01:03:51;;;;;;;5.07;4.55;;;;;;;;;;2073813;28;20112;-65
2024/03/26 01:05:10;;;;;;;5.47;4.53;;;;;;;;;;2073158;28;20614;-63
2024/03/26 01:06:29;;;;;;;4.93;3.83;;;;;;;;;;2074163;28;20025;-63
2024/03/26 01:07:48;;;;;;;4.95;4.18;;;;;;;;;;2074085;28;20033;-63
2024/03/26 01:09:07;;;;;;;4.68;4.03;;;;;;;;;;2073670;28;20026;-64
2024/03/26 01:10:26;;;;;;;5.88;4.18;;;;;;;;;;2073297;28;20030;-63
2024/03/26 01:11:45;;;;;;;4.40;4.00;;;;;;;;;;2073102;28;20037;-66
2024/03/26 01:13:04;;;;;;;4.85;4.10;;;;;;;;;;2075900;28;20037;-63
2024/03/26 01:14:23;;;;;;;6.20;4.10;;;;;;;;;;2072292;28;20120;-63
2024/03/26 01:15:42;;;;;;;4.13;3.70;;;;;;;;;;2071866;28;20034;-63
2024/03/26 01:17:01;;;;;;;4.97;4.00;;;;;;;;;;2070953;28;20156;-63
2024/03/26 01:18:20;;;;;;;3.83;3.47;;;;;;;;;;2075635;28;20041;-63
2024/03/26 01:19:39;;;;;;;4.50;3.83;;;;;;;;;;2073271;28;20884;-63
2024/03/26 01:20:58;;;;;;;5.10;2.97;;;;;;;;;;2073261;28;20667;-63
2024/03/26 01:22:17;;;;;;;4.07;3.67;;;;;;;;;;2072129;28;20145;-63
2024/03/26 01:23:36;;;;;;;3.55;3.25;;;;;;;;;;2073340;28;20029;-63
2024/03/26 01:24:55;;;;;;;4.75;3.58;;;;;;;;;;2079078;28;20482;-63
2024/03/26 01:26:17;;;;;;;3.25;3.05;;;;;;;;;;2072593;28;20053;-63
2024/03/26 01:27:36;;;;;;;3.90;3.60;;;;;;;;;;2073547;28;20430;-63
2024/03/26 01:28:55;;;;;;;3.83;3.53;;;;;;;;;;2074356;28;20112;-63
2024/03/26 01:30:14;;;;;;;4.70;3.28;;;;;;;;;;2073000;28;20567;-63
2024/03/26 01:31:33;;;;;;;4.93;3.58;;;;;;;;;;2074469;28;20033;-63
2024/03/26 01:32:52;;;;;;;3.70;3.40;;;;;;;;;;2074966;28;20175;-63
2024/03/26 01:34:11;;;;;;;3.65;3.35;;;;;;;;;;2073380;28;20112;-63
2024/03/26 01:35:30;;;;;;;3.75;3.45;;;;;;;;;;2073281;28;20402;-63
2024/03/26 01:36:49;;;;;;;4.32;3.95;;;;;;;;;;2073160;28;20390;-63
2024/03/26 01:38:08;;;;;;;4.43;4.03;;;;;;;;;;2075466;28;20486;-63
2024/03/26 01:39:27;;;;;;;4.55;3.60;;;;;;;;;;2073703;28;20035;-63
2024/03/26 01:40:46;;;;;;;5.63;4.13;;;;;;;;;;2073159;28;20018;-63
2024/03/26 01:42:05;;;;;;;4.10;3.67;;;;;;;;;;2073011;28;20022;-63
2024/03/26 01:43:24;;;;;;;4.57;3.50;;;;;;;;;;2073619;28;20025;-63
2024/03/26 01:44:43;;;;;;;4.05;3.75;;;;;;;;;;2073244;28;20025;-63
2024/03/26 01:46:03;;;;;;;4.30;3.90;;;;;;;;;;2080912;28;20064;-63
2024/03/26 01:47:22;;;;;;;4.60;3.60;;;;;;;;;;2075657;28;20045;-63
2024/03/26 01:48:41;;;;;;;5.47;4.00;;;;;;;;;;2073044;28;20482;-64
2024/03/26 01:50:01;;;;;;;4.00;3.58;;;;;;;;;;2072849;28;20642;-63
2024/03/26 01:51:20;;;;;;;4.30;3.97;;;;;;;;;;2072573;28;20137;-63
2024/03/26 01:52:39;;;;;;;4.40;4.00;;;;;;;;;;2074637;28;20045;-63
2024/03/26 01:53:59;;;;;;;4.55;4.13;;;;;;;;;;2073213;28;22772;-63
2024/03/26 01:55:18;;;;;;;3.97;3.67;;;;;;;;;;2072629;28;20034;-63
2024/03/26 01:56:38;;;;;;;4.55;3.90;;;;;;;;;;2073303;28;20333;-63
2024/03/26 01:57:58;;;;;;;5.75;3.97;;;;;;;;;;2074431;28;20281;-63
2024/03/26 01:59:18;;;;;;;3.75;3.45;;;;;;;;;;2072971;28;20025;-63
2024/03/26 02:00:39;;;;;;;4.25;3.88;;;;;;;;;;2072428;28;20484;-63
2024/03/26 02:01:58;;;;;;;5.05;3.80;;;;;;;;;;2074118;28;20386;-63
2024/03/26 02:03:16;;;;;;;5.22;4.05;;;;;;;;;;2074674;28;20042;-63
2024/03/26 02:04:35;;;;;;;4.05;3.70;;;;;;;;;;2073916;28;20042;-63
2024/03/26 02:05:54;;;;;;;4.10;3.78;;;;;;;;;;2073623;28;20081;-63
2024/03/26 02:07:20;;;;;;;5.00;4.28;;;;;;;;;;2072821;28;20034;-63
2024/03/26 02:08:39;;;;;;;5.40;4.13;;;;;;;;;;2080273;28;20527;-63
2024/03/26 02:09:58;;;;;;;4.03;3.70;;;;;;;;;;2080888;28;20033;-63
2024/03/26 02:11:17;;;;;;;4.03;3.72;;;;;;;;;;2076027;28;20030;-63
2024/03/26 02:12:36;;;;;;;6.40;4.25;;;;;;;;;;2072988;28;20033;-63
2024/03/26 02:13:55;;;;;;;8.25;4.00;;;;;;;;;;2073149;28;20029;-63
2024/03/26 02:15:14;;;;;;;5.78;3.92;;;;;;;;;;2073441;28;22682;-63
2024/03/26 02:16:33;;;;;;;4.30;3.88;;;;;;;;;;2073307;28;22171;-63
2024/03/26 02:17:52;;;;;;;4.18;3.88;;;;;;;;;;2073507;28;20045;-63
2024/03/26 02:19:12;;;;;;;4.43;4.00;;;;;;;;;;2072839;28;20505;-62
2024/03/26 02:20:31;;;;;;;5.18;4.32;;;;;;;;;;2075578;28;20489;-63
2024/03/26 02:21:50;;;;;;;4.45;4.05;;;;;;;;;;2074909;28;20406;-63
2024/03/26 02:23:09;;;;;;;7.13;3.35;;;;;;;;;;2073721;28;20382;-63
2024/03/26 02:24:31;;;;;;;3.70;3.40;;;;;;;;;;2073267;28;20613;-63
2024/03/26 02:25:51;;;;;;;5.65;4.25;;;;;;;;;;2073170;28;20499;-63
2024/03/26 02:27:10;;;;;;;4.15;3.75;;;;;;;;;;2072845;28;20034;-63
2024/03/26 02:28:28;;;;;;;5.10;3.95;;;;;;;;;;2073676;28;20025;-63
2024/03/26 02:29:47;;;;;;;6.43;3.70;;;;;;;;;;2073013;28;20062;-63
2024/03/26 02:31:06;;;;;;;4.05;3.67;;;;;;;;;;2072799;28;20030;-63
2024/03/26 02:32:25;;;;;;;4.10;3.80;;;;;;;;;;2074041;28;20061;-63
2024/03/26 02:33:44;;;;;;;4.00;3.70;;;;;;;;;;2071265;28;20096;-63
2024/03/26 02:35:03;;;;;;;4.20;3.83;;;;;;;;;;2069200;28;20030;-63
2024/03/26 02:36:23;;;;;;;5.45;3.67;;;;;;;;;;2073229;28;20037;-63
2024/03/26 02:37:42;;;;;;;4.20;3.70;;;;;;;;;;2073764;28;20033;-63
2024/03/26 02:39:01;;;;;;;4.32;3.92;;;;;;;;;;2073580;28;20033;-63
2024/03/26 02:40:20;;;;;;;4.18;3.50;;;;;;;;;;2073422;28;20034;-63
2024/03/26 02:41:39;;;;;;;4.65;3.90;;;;;;;;;;2071804;28;20034;-63
2024/03/26 02:42:59;;;;;;;5.95;3.53;;;;;;;;;;2074155;28;20111;-63
2024/03/26 02:44:18;;;;;;;3.63;3.33;;;;;;;;;;2072912;28;20038;-63
2024/03/26 02:45:37;;;;;;;4.25;3.85;;;;;;;;;;2069901;28;20418;-64
2024/03/26 02:46:56;;;;;;;4.47;4.07;;;;;;;;;;2068852;28;20071;-64
2024/03/26 02:48:15;;;;;;;4.22;3.83;;;;;;;;;;2073602;28;20030;-63
2024/03/26 02:49:35;;;;;;;4.63;3.80;;;;;;;;;;2072852;28;20046;-63
2024/03/26 02:50:53;;;;;;;4.15;3.78;;;;;;;;;;2072293;28;20056;-63
2024/03/26 02:52:13;;;;;;;4.63;4.00;;;;;;;;;;2072376;28;20494;-64
2024/03/26 02:53:32;;;;;;;3.88;3.58;;;;;;;;;;2080144;28;20140;-64
2024/03/26 02:54:51;;;;;;;3.95;3.63;;;;;;;;;;2072465;28;20029;-64
2024/03/26 02:56:10;;;;;;;4.57;3.97;;;;;;;;;;2068448;28;20034;-64
2024/03/26 02:57:29;;;;;;;4.88;3.70;;;;;;;;;;2069095;28;20037;-64
2024/03/26 02:58:48;;;;;;;3.80;3.50;;;;;;;;;;2072696;28;20117;-64
2024/03/26 03:00:07;;;;;;;4.07;3.78;;;;;;;;;;2071740;28;20033;-63
2024/03/26 03:01:26;;;;;;;4.18;3.88;;;;;;;;;;2071460;28;20077;-63
2024/03/26 03:02:45;;;;;;;6.05;4.55;;;;;;;;;;2074704;28;20057;-63
2024/03/26 03:04:05;;;;;;;5.03;3.78;;;;;;;;;;2073871;28;20025;-64
2024/03/26 03:05:24;;;;;;;6.32;3.85;;;;;;;;;;2074978;28;20584;-63
2024/03/26 03:06:43;;;;;;;3.95;3.65;;;;;;;;;;2076096;28;20484;-63
2024/03/26 03:08:02;;;;;;;5.18;3.97;;;;;;;;;;2070593;28;20045;-63
2024/03/26 03:09:21;;;;;;;4.35;3.97;;;;;;;;;;2074994;28;20059;-63
2024/03/26 03:10:41;;;;;;;4.43;3.97;;;;;;;;;;2082509;28;20045;-64
2024/03/26 03:11:59;;;;;;;4.03;3.72;;;;;;;;;;2077145;28;20037;-64
2024/03/26 03:13:18;;;;;;;4.78;3.90;;;;;;;;;;2075823;28;20037;-64
2024/03/26 03:14:37;;;;;;;5.70;3.90;;;;;;;;;;2073336;28;20045;-64
2024/03/26 03:15:56;;;;;;;4.63;4.18;;;;;;;;;;2070219;28;20038;-64
2024/03/26 03:17:15;;;;;;;6.50;3.85;;;;;;;;;;2074347;28;20490;-63
2024/03/26 03:18:34;;;;;;;4.88;4.25;;;;;;;;;;2072079;28;20026;-63
2024/03/26 03:19:53;;;;;;;4.45;4.00;;;;;;;;;;2074459;28;20033;-63
2024/03/26 03:21:12;;;;;;;5.90;4.13;;;;;;;;;;2072484;28;20028;-64
2024/03/26 03:22:31;;;;;;;5.20;4.28;;;;;;;;;;2075343;28;20105;-63
2024/03/26 03:23:50;;;;;;;4.00;3.70;;;;;;;;;;2070966;28;20026;-63
2024/03/26 03:25:08;;;;;;;4.40;4.03;;;;;;;;;;2071270;28;20449;-64
2024/03/26 03:26:27;;;;;;;10.23;4.30;;;;;;;;;;2073773;28;20029;-64
2024/03/26 03:27:46;;;;;;;4.38;4.07;;;;;;;;;;2073309;28;20505;-64
2024/03/26 03:29:05;;;;;;;4.20;3.67;;;;;;;;;;2072855;28;20120;-63
2024/03/26 03:30:25;;;;;;;4.38;4.07;;;;;;;;;;2071815;28;20486;-63
2024/03/26 03:31:44;;;;;;;4.40;4.00;;;;;;;;;;2074629;28;20069;-64
2024/03/26 03:33:03;;;;;;;5.63;3.95;;;;;;;;;;2074984;28;20038;-63
2024/03/26 03:34:22;;;;;;;4.25;3.95;;;;;;;;;;2074446;28;20120;-63
2024/03/26 03:35:40;;;;;;;4.40;4.10;;;;;;;;;;2073501;28;20077;-64
2024/03/26 03:36:59;;;;;;;4.25;3.63;;;;;;;;;;2075977;28;22590;-63
2024/03/26 03:38:18;;;;;;;5.30;4.40;;;;;;;;;;2074844;28;20037;-64
2024/03/26 03:39:38;;;;;;;4.63;4.20;;;;;;;;;;2074768;28;20029;-64
2024/03/26 03:40:57;;;;;;;4.47;4.07;;;;;;;;;;2074435;28;21247;-63
2024/03/26 03:42:16;;;;;;;4.80;4.40;;;;;;;;;;2071595;28;20478;-63
2024/03/26 03:43:35;;;;;;;4.40;4.05;;;;;;;;;;2072497;28;20033;-65
2024/03/26 03:44:54;;;;;;;4.13;3.83;;;;;;;;;;2074073;28;20033;-64
2024/03/26 03:46:12;;;;;;;6.22;3.97;;;;;;;;;;2075159;28;20029;-63
2024/03/26 03:47:31;;;;;;;4.88;4.40;;;;;;;;;;2075976;28;20037;-64
2024/03/26 03:48:50;;;;;;;4.38;4.07;;;;;;;;;;2074858;28;20761;-70
2024/03/26 03:50:09;;;;;;;5.32;4.28;;;;;;;;;;2073292;28;20030;-65
2024/03/26 03:51:28;;;;;;;5.45;4.38;;;;;;;;;;2073742;28;20565;-64
2024/03/26 03:52:47;;;;;;;5.18;4.43;;;;;;;;;;2074352;28;20030;-65
2024/03/26 03:54:06;;;;;;;4.88;4.47;;;;;;;;;;2071872;28;20037;-63
2024/03/26 03:55:25;;;;;;;4.85;4.28;;;;;;;;;;2074631;28;20042;-64
2024/03/26 03:56:44;;;;;;;5.45;4.30;;;;;;;;;;2073886;28;20037;-63
2024/03/26 03:58:03;;;;;;;5.95;4.55;;;;;;;;;;2074915;28;20493;-63
2024/03/26 03:59:22;;;;;;;5.15;4.13;;;;;;;;;;2073265;28;20041;-63
2024/03/26 04:00:41;;;;;;;4.78;4.43;;;;;;;;;;2074186;28;20041;-63
2024/03/26 04:02:00;;;;;;;5.40;4.90;;;;;;;;;;2074907;28;20494;-63
2024/03/26 04:03:19;;;;;;;4.90;4.50;;;;;;;;;;2075706;28;20482;-63
2024/03/26 04:04:38;;;;;;;5.63;3.90;;;;;;;;;;2074041;28;20033;-63
2024/03/26 04:06:01;;;;;;;4.80;4.45;;;;;;;;;;2074820;28;20663;-63
2024/03/26 04:07:20;;;;;;;4.75;4.35;;;;;;;;;;2079157;28;20490;-63
2024/03/26 04:08:39;;;;;;;5.05;4.65;;;;;;;;;;2076279;28;20068;-63
2024/03/26 04:09:58;;;;;;;4.72;4.30;;;;;;;;;;2073936;28;20151;-63
2024/03/26 04:11:17;;;;;;;4.72;4.32;;;;;;;;;;2073635;28;20297;-63
2024/03/26 04:12:36;;;;;;;4.75;4.35;;;;;;;;;;2075442;28;20022;-63
2024/03/26 04:13:55;;;;;;;5.65;4.65;;;;;;;;;;2074194;28;20025;-63
2024/03/26 04:15:14;;;;;;;4.95;4.53;;;;;;;;;;2073321;28;20021;-63
2024/03/26 04:16:35;;;;;;;5.00;4.50;;;;;;;;;;2073954;28;20030;-63
2024/03/26 04:17:54;;;;;;;6.63;4.88;;;;;;;;;;2071320;28;20033;-63
2024/03/26 04:19:13;;;;;;;4.97;4.25;;;;;;;;;;2074098;28;21412;-63
2024/03/26 04:20:32;;;;;;;4.93;4.43;;;;;;;;;;2075256;28;20025;-63
2024/03/26 04:21:51;;;;;;;4.78;4.38;;;;;;;;;;2073913;28;20457;-63
2024/03/26 04:23:10;;;;;;;5.65;4.35;;;;;;;;;;2080516;28;20030;-63
2024/03/26 04:24:29;;;;;;;4.32;4.03;;;;;;;;;;2076809;28;20041;-63
2024/03/26 04:25:57;;;;;;;4.38;3.97;;;;;;;;;;2073937;28;20982;-63
2024/03/26 04:27:16;;;;;;;5.63;4.32;;;;;;;;;;2073343;28;20490;-62
2024/03/26 04:28:35;;;;;;;5.70;5.10;;;;;;;;;;2078165;28;20029;-62
2024/03/26 04:29:54;;;;;;;4.90;4.50;;;;;;;;;;2072624;28;20105;-63
2024/03/26 04:31:14;;;;;;;5.15;4.65;;;;;;;;;;2074353;28;20064;-62
2024/03/26 04:32:33;;;;;;;4.93;4.40;;;;;;;;;;2074751;28;20238;-63
2024/03/26 04:33:52;;;;;;;5.32;4.93;;;;;;;;;;2070602;28;20056;-62
2024/03/26 04:35:11;;;;;;;4.45;4.07;;;;;;;;;;2074865;28;20569;-62
2024/03/26 04:36:30;;;;;;;6.60;4.88;;;;;;;;;;2073872;28;20033;-62
2024/03/26 04:37:49;;;;;;;8.52;4.75;;;;;;;;;;2074355;28;20025;-62
2024/03/26 04:39:09;;;;;;;5.10;4.70;;;;;;;;;;2075073;28;20029;-62
2024/03/26 04:40:28;;;;;;;5.88;4.38;;;;;;;;;;2070714;28;20502;-62
2024/03/26 04:41:47;;;;;;;4.85;4.50;;;;;;;;;;2073576;28;20061;-62
2024/03/26 04:43:06;;;;;;;10.30;7.68;;;;;;;;;;2075098;28;20025;-62
2024/03/26 04:44:26;;;;;;;5.80;5.30;;;;;;;;;;2073824;28;20041;-63
2024/03/26 04:45:45;;;;;;;6.78;5.45;;;;;;;;;;2073001;28;20030;-63
2024/03/26 04:47:04;;;;;;;5.68;5.00;;;;;;;;;;2074761;28;20033;-63
2024/03/26 04:48:23;;;;;;;5.53;5.00;;;;;;;;;;2073235;28;20419;-63
2024/03/26 04:49:42;;;;;;;5.38;4.85;;;;;;;;;;2073865;28;20069;-63
2024/03/26 04:51:01;;;;;;;6.22;5.15;;;;;;;;;;2070201;28;20049;-63
2024/03/26 04:52:20;;;;;;;5.63;5.13;;;;;;;;;;2069909;28;20065;-63
2024/03/26 04:53:38;;;;;;;5.70;5.00;;;;;;;;;;2070676;28;20089;-63
2024/03/26 04:54:57;;;;;;;5.68;5.13;;;;;;;;;;2074485;28;20059;-63
2024/03/26 04:56:16;;;;;;;8.02;5.15;;;;;;;;;;2072391;28;20034;-63
2024/03/26 04:57:35;;;;;;;7.90;5.40;;;;;;;;;;2072519;28;20030;-63
2024/03/26 04:58:54;;;;;;;5.30;4.80;;;;;;;;;;2073359;28;20147;-63
2024/03/26 05:00:14;;;;;;;5.85;5.28;;;;;;;;;;2069548;28;20422;-63
2024/03/26 05:01:33;;;;;;;5.82;5.22;;;;;;;;;;2065740;28;20112;-64
2024/03/26 05:02:52;;;;;;;5.20;4.70;;;;;;;;;;2073667;28;20025;-63
2024/03/26 05:04:11;;;;;;;5.05;4.65;;;;;;;;;;2073955;28;20391;-63
2024/03/26 05:05:30;;;;;;;6.32;4.40;;;;;;;;;;2073221;28;20036;-63
2024/03/26 05:06:49;;;;;;;5.30;4.80;;;;;;;;;;2073975;28;20041;-63
2024/03/26 05:08:08;;;;;;;6.40;5.68;;;;;;;;;;2074366;28;20037;-63
2024/03/26 05:09:27;;;;;;;6.28;5.15;;;;;;;;;;2073909;28;20033;-63
2024/03/26 05:10:46;;;;;;;7.57;5.25;;;;;;;;;;2073180;28;20338;-63
2024/03/26 05:12:05;;;;;;;6.68;5.05;;;;;;;;;;2071635;28;20069;-63
2024/03/26 05:13:24;;;;;;;6.57;4.93;;;;;;;;;;2070343;28;20738;-63
2024/03/26 05:14:43;;;;;;;6.53;5.35;;;;;;;;;;2073314;28;20069;-66
2024/03/26 05:16:02;;;;;;;11.88;8.63;;;;;;;;;;2071588;28;20057;-64
2024/03/26 05:17:21;;;;;;;6.05;5.43;;;;;;;;;;2072807;28;20061;-63
2024/03/26 05:18:40;;;;;;;7.05;5.85;;;;;;;;;;2073300;28;20092;-63
2024/03/26 05:19:58;;;;;;;6.50;5.65;;;;;;;;;;2074328;28;20022;-63
2024/03/26 05:21:17;;;;;;;5.70;5.20;;;;;;;;;;2075254;28;20034;-63
2024/03/26 05:22:36;;;;;;;7.85;4.97;;;;;;;;;;2079788;28;20074;-63
2024/03/26 05:23:55;;;;;;;6.75;5.43;;;;;;;;;;2080937;28;20482;-63
2024/03/26 05:25:14;;;;;;;7.13;6.05;;;;;;;;;;2077266;28;20037;-64
2024/03/26 05:26:33;;;;;;;9.25;5.38;;;;;;;;;;2078922;28;20514;-63
2024/03/26 05:27:52;;;;;;;6.38;5.07;;;;;;;;;;2079013;28;20062;-63
2024/03/26 05:29:11;;;;;;;7.78;5.47;;;;;;;;;;2081118;28;20026;-63
2024/03/26 05:30:30;;;;;;;5.68;5.03;;;;;;;;;;2081856;28;20033;-63
2024/03/26 05:31:49;;;;;;;6.45;5.85;;;;;;;;;;2080403;28;20458;-63
2024/03/26 05:33:08;;;;;;;10.55;5.63;;;;;;;;;;2079858;28;20037;-65
2024/03/26 05:34:27;;;;;;;6.88;5.40;;;;;;;;;;2079586;28;20486;-64
2024/03/26 05:35:46;;;;;;;6.85;5.05;;;;;;;;;;2077263;28;21753;-65
2024/03/26 05:37:05;;;;;;;7.60;5.82;;;;;;;;;;2078348;28;20037;-65
2024/03/26 05:38:24;;;;;;;7.85;5.10;;;;;;;;;;2072793;28;20441;-64
2024/03/26 05:39:45;;;;;;;5.28;4.78;;;;;;;;;;2077987;28;20152;-65
2024/03/26 05:41:05;;;;;;;5.63;4.38;;;;;;;;;;2082021;28;20052;-65
2024/03/26 05:42:24;;;;;;;6.85;5.13;;;;;;;;;;2078678;28;20498;-66
2024/03/26 05:43:43;;;;;;;5.43;4.60;;;;;;;;;;2076344;28;20029;-68
2024/03/26 05:45:02;;;;;;;7.03;5.38;;;;;;;;;;2079732;28;20033;-65
2024/03/26 05:46:22;;;;;;;8.40;5.00;;;;;;;;;;2080993;28;20034;-68
2024/03/26 05:47:40;;;;;;;5.40;4.90;;;;;;;;;;2081335;28;20021;-65
2024/03/26 05:49:00;;;;;;;5.22;4.15;;;;;;;;;;2080194;28;20585;-65
2024/03/26 05:50:19;;;;;;;7.53;5.03;;;;;;;;;;2079970;28;20025;-65
2024/03/26 05:51:38;;;;;;;7.05;4.82;;;;;;;;;;2080308;28;20057;-65
2024/03/26 05:52:58;;;;;;;5.32;4.82;;;;;;;;;;2080185;28;20046;-66
2024/03/26 05:54:18;;;;;;;7.60;4.72;;;;;;;;;;2080527;28;20025;-65
2024/03/26 05:55:37;;;;;;;8.05;4.88;;;;;;;;;;2080357;28;20025;-65
2024/03/26 05:56:56;;;;;;;5.85;5.35;;;;;;;;;;2079809;28;20029;-66
2024/03/26 05:58:15;;;;;;;5.43;4.85;;;;;;;;;;2079969;28;20037;-66
2024/03/26 05:59:34;;;;;;;5.88;4.68;;;;;;;;;;2080369;28;20057;-65
2024/03/26 06:00:53;;;;;;;5.15;4.60;;;;;;;;;;2078363;28;20033;-66
2024/03/26 06:02:12;;;;;;;7.38;4.80;;;;;;;;;;2081155;28;20029;-65
2024/03/26 06:03:31;;;;;;;5.70;5.03;;;;;;;;;;2080009;28;20102;-65
2024/03/26 06:04:50;;;;;;;5.28;4.85;;;;;;;;;;2079115;28;20026;-64
2024/03/26 06:06:09;;;;;;;6.68;5.70;;;;;;;;;;2078897;28;20148;-65
2024/03/26 06:07:28;;;;;;;8.63;5.60;;;;;;;;;;2076017;28;20026;-65
2024/03/26 06:08:47;;;;;;;5.88;5.32;;;;;;;;;;2079715;28;20032;-65
2024/03/26 06:10:06;;;;;;;8.07;4.90;;;;;;;;;;2080615;28;20033;-65
2024/03/26 06:11:25;;;;;;;6.05;5.47;;;;;;;;;;2080220;28;20390;-65
2024/03/26 06:12:44;;;;;;;9.63;6.22;;;;;;;;;;2078597;28;20030;-65
2024/03/26 06:14:03;;;;;;;7.72;5.28;;;;;;;;;;2076972;28;20482;-65
2024/03/26 06:15:22;;;;;;;8.38;5.60;;;;;;;;;;2079639;28;20124;-65
2024/03/26 06:16:41;;;;;;;6.32;5.63;;;;;;;;;;2080418;28;20021;-65
2024/03/26 06:18:00;;;;;;;5.95;5.40;;;;;;;;;;2080401;28;20026;-65
2024/03/26 06:19:19;;;;;;;6.72;5.85;;;;;;;;;;2080267;28;20390;-65
2024/03/26 06:20:38;;;;;;;8.68;6.00;;;;;;;;;;2080568;28;20121;-65
2024/03/26 06:21:57;;;;;;;6.38;5.05;;;;;;;;;;2080311;28;20025;-64
2024/03/26 06:23:16;;;;;;;11.43;5.93;;;;;;;;;;2077770;28;20026;-64
2024/03/26 06:24:35;;;;;;;7.93;5.20;;;;;;;;;;2079912;28;20029;-64
2024/03/26 06:25:53;;;;;;;5.72;5.15;;;;;;;;;;2088145;28;20083;-64
2024/03/26 06:27:12;;;;;;;6.43;5.13;;;;;;;;;;2082863;28;20643;-64
2024/03/26 06:28:31;;;;;;;7.30;5.18;;;;;;;;;;2079071;28;20025;-64
2024/03/26 06:29:50;;;;;;;6.10;5.20;;;;;;;;;;2072786;28;20491;-64
2024/03/26 06:31:09;;;;;;;10.35;5.13;;;;;;;;;;2073400;28;20065;-66
2024/03/26 06:32:28;;;;;;;7.75;5.78;;;;;;;;;;2075391;28;20034;-64
2024/03/26 06:33:47;;;;;;;8.57;5.38;;;;;;;;;;2071788;28;20029;-64
2024/03/26 06:35:06;;;;;;;8.25;6.18;;;;;;;;;;2073256;28;20037;-64
2024/03/26 06:36:25;;;;;;;6.97;6.05;;;;;;;;;;2073455;28;20022;-64
2024/03/26 06:37:44;;;;;;;7.60;5.68;;;;;;;;;;2074013;28;20022;-64
2024/03/26 06:39:04;;;;;;;6.32;5.05;;;;;;;;;;2074232;28;20040;-64
2024/03/26 06:40:23;;;;;;;6.55;5.30;;;;;;;;;;2072232;28;20039;-64
2024/03/26 06:41:41;;;;;;;8.43;5.68;;;;;;;;;;2072712;28;20030;-65
2024/03/26 06:43:01;;;;;;;6.75;5.70;;;;;;;;;;2073142;28;20449;-65
2024/03/26 06:44:20;;;;;;;8.73;5.28;;;;;;;;;;2072724;28;20030;-64
2024/03/26 06:45:39;;;;;;;8.43;5.80;;;;;;;;;;2072056;28;20030;-64
2024/03/26 06:46:58;;;;;;;6.68;5.00;;;;;;;;;;2073888;28;20029;-64
2024/03/26 06:48:17;;;;;;;6.38;5.43;;;;;;;;;;2073511;28;20578;-65
2024/03/26 06:49:36;;;;;;;6.93;5.68;;;;;;;;;;2071678;28;21184;-64
2024/03/26 06:50:55;;;;;;;8.85;5.68;;;;;;;;;;2071711;28;20030;-64
2024/03/26 06:52:14;;;;;;;8.82;5.07;;;;;;;;;;2072600;28;20033;-64
2024/03/26 06:53:33;;;;;;;6.72;5.50;;;;;;;;;;2072228;28;20509;-64
2024/03/26 06:54:52;;;;;;;8.23;5.63;;;;;;;;;;2070272;28;20033;-64
2024/03/26 06:56:11;;;;;;;6.20;5.20;;;;;;;;;;2071594;28;20025;-63
2024/03/26 06:57:31;;;;;;;7.90;4.82;;;;;;;;;;2073624;28;20030;-63
2024/03/26 06:58:50;;;;;;;13.55;5.50;;;;;;;;;;2068941;28;20030;-67
2024/03/26 07:00:09;;;;;;;10.35;5.75;;;;;;;;;;2072454;28;20042;-64
2024/03/26 07:01:28;;;;;;;10.00;5.53;;;;;;;;;;2073771;28;20021;-63
2024/03/26 07:02:47;;;;;;;8.23;5.13;;;;;;;;;;2073589;28;20053;-63
2024/03/26 07:04:06;;;;;;;11.82;5.35;;;;;;;;;;2073598;28;20021;-64
2024/03/26 07:05:25;;;;;;;24.35;13.98;;;;;;;;;;2073064;28;20029;-64
2024/03/26 07:06:44;;;;;;;11.13;4.72;;;;;;;;;;2072022;28;20033;-65
2024/03/26 07:08:04;;;;;;;6.18;4.25;;;;;;;;;;2075177;28;20030;-65
2024/03/26 07:09:23;;;;;;;11.55;4.43;;;;;;;;;;2073998;28;20116;-65
2024/03/26 07:10:42;;;;;;;7.10;5.35;;;;;;;;;;2073234;28;20038;-65
2024/03/26 07:12:01;;;;;;;5.03;4.53;;;;;;;;;;2074229;28;20029;-64
2024/03/26 07:13:20;;;;;;;6.18;4.38;;;;;;;;;;2075784;28;20026;-64
2024/03/26 07:14:39;;;;;;;6.10;4.47;;;;;;;;;;2074725;28;20029;-65
2024/03/26 07:15:58;;;;;;;5.40;4.88;;;;;;;;;;2071764;28;20033;-64
2024/03/26 07:17:18;;;;;;;12.40;4.85;;;;;;;;;;2073200;28;20068;-64
2024/03/26 07:18:37;;;;;;;5.90;4.90;;;;;;;;;;2070620;28;20051;-64
2024/03/26 07:19:56;;;;;;;7.10;5.15;;;;;;;;;;2071095;28;23059;-65
2024/03/26 07:21:15;;;;;;;6.53;4.47;;;;;;;;;;2073643;28;20561;-64
2024/03/26 07:22:34;;;;;;;5.35;4.50;;;;;;;;;;2074420;28;20029;-65
2024/03/26 07:23:53;;;;;;;6.53;4.50;;;;;;;;;;2072985;28;20033;-64
2024/03/26 07:25:12;;;;;;;5.93;4.55;;;;;;;;;;2073894;28;20069;-64
2024/03/26 07:26:31;;;;;;;4.95;4.10;;;;;;;;;;2073382;28;20069;-64
2024/03/26 07:27:49;;;;;;;6.72;4.05;;;;;;;;;;2071269;28;22160;-65
2024/03/26 07:29:09;;;;;;;5.80;4.10;;;;;;;;;;2070850;28;20041;-64
2024/03/26 07:30:28;;;;;;;4.88;3.90;;;;;;;;;;2071228;28;20076;-64
2024/03/26 07:31:48;;;;;;;4.40;4.00;;;;;;;;;;2073534;28;20037;-64
2024/03/26 07:33:08;;;;;;;5.25;4.30;;;;;;;;;;2077120;28;20026;-64
2024/03/26 07:34:27;;;;;;;5.93;4.45;;;;;;;;;;2079574;28;20045;-64
2024/03/26 07:35:46;;;;;;;6.15;3.78;;;;;;;;;;2079617;28;20081;-64
2024/03/26 07:37:05;;;;;;;4.78;4.13;;;;;;;;;;2080348;28;20450;-64
2024/03/26 07:38:24;;;;;;;3.95;3.65;;;;;;;;;;2073912;28;20030;-64
2024/03/26 07:39:42;;;;;;;7.13;3.67;;;;;;;;;;2071196;28;20033;-64
2024/03/26 07:41:01;;;;;;;4.00;3.45;;;;;;;;;;2073613;28;22406;-64
2024/03/26 07:42:20;;;;;;;5.40;3.28;;;;;;;;;;2073607;28;20044;-64
2024/03/26 07:43:39;;;;;;;3.55;3.20;;;;;;;;;;2072684;28;20582;-64
2024/03/26 07:44:58;;;;;;;7.55;3.45;;;;;;;;;;2073242;28;20061;-64
2024/03/26 07:46:17;;;;;;;4.40;3.72;;;;;;;;;;2071461;28;20546;-64
2024/03/26 07:47:36;;;;;;;3.47;3.17;;;;;;;;;;2074552;28;20029;-64
2024/03/26 07:48:55;;;;;;;3.30;3.00;;;;;;;;;;2074189;28;20486;-64
2024/03/26 07:50:14;;;;;;;7.13;3.35;;;;;;;;;;2074532;28;20116;-64
2024/03/26 07:51:33;;;;;;;3.50;3.20;;;;;;;;;;2069059;28;20285;-64
2024/03/26 07:52:52;;;;;;;5.57;3.10;;;;;;;;;;2072710;28;20034;-64
2024/03/26 07:54:11;;;;;;;3.35;3.05;;;;;;;;;;2073873;28;20045;-64